sensor_id;sensor_type;location;lat;lon;timestamp;temperature;humidity
26414;DHT22;14108;53.668;10.288;2022-07-18T00:02:18;18.50;61.30
26414;DHT22;14108;53.668;10.288;2022-07-18T00:04:45;18.50;61.00
26414;DHT22;14108;53.668;10.288;2022-07-18T00:07:13;18.40;61.00
26414;DHT22;14108;53.668;10.288;2022-07-18T00:09:41;18.40;61.20
26414;DHT22;14108;53.668;10.288;2022-07-18T00:12:10;18.40;61.30
26414;DHT22;14108;53.668;10.288;2022-07-18T00:14:38;18.40;61.60
26414;DHT22;14108;53.668;10.288;2022-07-18T00:17:07;18.40;61.40
26414;DHT22;14108;53.668;10.288;2022-07-18T00:19:34;18.40;61.40
26414;DHT22;14108;53.668;10.288;2022-07-18T00:22:03;18.40;61.30
26414;DHT22;14108;53.668;10.288;2022-07-18T00:24:31;18.40;61.40
26414;DHT22;14108;53.668;10.288;2022-07-18T00:26:58;18.40;61.60
26414;DHT22;14108;53.668;10.288;2022-07-18T00:29:26;18.40;61.60
26414;DHT22;14108;53.668;10.288;2022-07-18T00:31:54;18.40;61.80
26414;DHT22;14108;53.668;10.288;2022-07-18T00:34:21;18.30;62.00
26414;DHT22;14108;53.668;10.288;2022-07-18T00:36:49;18.30;62.10
26414;DHT22;14108;53.668;10.288;2022-07-18T00:39:16;18.30;62.30
26414;DHT22;14108;53.668;10.288;2022-07-18T00:41:46;18.30;63.20
26414;DHT22;14108;53.668;10.288;2022-07-18T00:44:17;18.30;62.80
26414;DHT22;14108;53.668;10.288;2022-07-18T00:46:45;18.20;63.20
26414;DHT22;14108;53.668;10.288;2022-07-18T00:49:13;18.20;62.90
26414;DHT22;14108;53.668;10.288;2022-07-18T00:51:40;18.20;63.10
26414;DHT22;14108;53.668;10.288;2022-07-18T00:54:08;18.20;63.20
26414;DHT22;14108;53.668;10.288;2022-07-18T00:56:36;18.20;63.20
26414;DHT22;14108;53.668;10.288;2022-07-18T00:59:03;18.20;63.20
26414;DHT22;14108;53.668;10.288;2022-07-18T01:01:30;18.20;63.10
26414;DHT22;14108;53.668;10.288;2022-07-18T01:04:11;18.20;63.00
26414;DHT22;14108;53.668;10.288;2022-07-18T01:06:40;18.20;62.90
26414;DHT22;14108;53.668;10.288;2022-07-18T01:09:07;18.20;62.80
26414;DHT22;14108;53.668;10.288;2022-07-18T01:11:35;18.20;62.90
26414;DHT22;14108;53.668;10.288;2022-07-18T01:14:03;18.10;62.90
26414;DHT22;14108;53.668;10.288;2022-07-18T01:16:31;18.10;62.20
26414;DHT22;14108;53.668;10.288;2022-07-18T01:18:59;18.10;63.00
26414;DHT22;14108;53.668;10.288;2022-07-18T01:21:26;18.10;62.90
26414;DHT22;14108;53.668;10.288;2022-07-18T01:23:54;18.10;63.00
26414;DHT22;14108;53.668;10.288;2022-07-18T01:26:21;18.10;63.00
26414;DHT22;14108;53.668;10.288;2022-07-18T01:28:48;18.00;63.10
26414;DHT22;14108;53.668;10.288;2022-07-18T01:31:16;18.00;63.20
26414;DHT22;14108;53.668;10.288;2022-07-18T01:33:43;18.00;63.20
26414;DHT22;14108;53.668;10.288;2022-07-18T01:36:11;18.00;63.20
26414;DHT22;14108;53.668;10.288;2022-07-18T01:38:38;17.90;63.40
26414;DHT22;14108;53.668;10.288;2022-07-18T01:41:06;17.90;63.50
26414;DHT22;14108;53.668;10.288;2022-07-18T01:43:33;17.90;63.30
26414;DHT22;14108;53.668;10.288;2022-07-18T01:46:04;17.90;64.00
26414;DHT22;14108;53.668;10.288;2022-07-18T01:48:32;17.80;63.40
26414;DHT22;14108;53.668;10.288;2022-07-18T01:51:00;17.80;63.60
26414;DHT22;14108;53.668;10.288;2022-07-18T01:53:27;17.80;63.80
26414;DHT22;14108;53.668;10.288;2022-07-18T01:55:54;17.70;63.70
26414;DHT22;14108;53.668;10.288;2022-07-18T01:58:22;17.70;63.90
26414;DHT22;14108;53.668;10.288;2022-07-18T02:00:49;17.70;64.00
26414;DHT22;14108;53.668;10.288;2022-07-18T02:03:16;17.70;64.10
26414;DHT22;14108;53.668;10.288;2022-07-18T02:05:44;17.70;64.10
26414;DHT22;14108;53.668;10.288;2022-07-18T02:08:11;17.70;64.30
26414;DHT22;14108;53.668;10.288;2022-07-18T02:10:39;17.70;64.10
26414;DHT22;14108;53.668;10.288;2022-07-18T02:13:06;17.70;64.20
26414;DHT22;14108;53.668;10.288;2022-07-18T02:15:34;17.70;64.40
26414;DHT22;14108;53.668;10.288;2022-07-18T02:18:01;17.70;64.50
26414;DHT22;14108;53.668;10.288;2022-07-18T02:20:29;17.60;64.70
26414;DHT22;14108;53.668;10.288;2022-07-18T02:22:56;17.70;64.70
26414;DHT22;14108;53.668;10.288;2022-07-18T02:25:23;17.60;64.70
26414;DHT22;14108;53.668;10.288;2022-07-18T02:27:51;17.60;64.60
26414;DHT22;14108;53.668;10.288;2022-07-18T02:30:18;17.60;64.60
26414;DHT22;14108;53.668;10.288;2022-07-18T02:32:45;17.60;64.80
26414;DHT22;14108;53.668;10.288;2022-07-18T02:35:13;17.60;64.80
26414;DHT22;14108;53.668;10.288;2022-07-18T02:37:40;17.60;64.90
26414;DHT22;14108;53.668;10.288;2022-07-18T02:40:10;17.60;64.90
26414;DHT22;14108;53.668;10.288;2022-07-18T02:42:38;17.60;64.90
26414;DHT22;14108;53.668;10.288;2022-07-18T02:45:07;17.60;64.90
26414;DHT22;14108;53.668;10.288;2022-07-18T02:47:34;17.60;64.90
26414;DHT22;14108;53.668;10.288;2022-07-18T02:50:02;17.60;64.90
26414;DHT22;14108;53.668;10.288;2022-07-18T02:52:29;17.60;64.90
26414;DHT22;14108;53.668;10.288;2022-07-18T02:54:57;17.60;65.00
26414;DHT22;14108;53.668;10.288;2022-07-18T02:57:27;17.60;65.10
26414;DHT22;14108;53.668;10.288;2022-07-18T02:59:54;17.60;64.90
26414;DHT22;14108;53.668;10.288;2022-07-18T03:02:22;17.60;64.90
26414;DHT22;14108;53.668;10.288;2022-07-18T03:04:49;17.70;65.00
26414;DHT22;14108;53.668;10.288;2022-07-18T03:07:17;17.70;65.00
26414;DHT22;14108;53.668;10.288;2022-07-18T03:09:44;17.70;65.10
26414;DHT22;14108;53.668;10.288;2022-07-18T03:12:12;17.70;65.00
26414;DHT22;14108;53.668;10.288;2022-07-18T03:14:39;17.70;65.00
26414;DHT22;14108;53.668;10.288;2022-07-18T03:17:06;17.70;65.00
26414;DHT22;14108;53.668;10.288;2022-07-18T03:19:34;17.70;64.80
26414;DHT22;14108;53.668;10.288;2022-07-18T03:22:02;17.70;64.60
26414;DHT22;14108;53.668;10.288;2022-07-18T03:24:30;17.70;64.70
26414;DHT22;14108;53.668;10.288;2022-07-18T03:26:57;17.70;64.60
26414;DHT22;14108;53.668;10.288;2022-07-18T03:29:25;17.80;64.70
26414;DHT22;14108;53.668;10.288;2022-07-18T03:31:52;17.80;64.50
26414;DHT22;14108;53.668;10.288;2022-07-18T03:34:20;17.80;64.30
26414;DHT22;14108;53.668;10.288;2022-07-18T03:36:47;17.80;64.40
26414;DHT22;14108;53.668;10.288;2022-07-18T03:39:15;17.80;64.20
26414;DHT22;14108;53.668;10.288;2022-07-18T03:41:42;17.80;64.20
26414;DHT22;14108;53.668;10.288;2022-07-18T03:44:10;17.80;64.40
26414;DHT22;14108;53.668;10.288;2022-07-18T03:46:37;17.80;64.60
26414;DHT22;14108;53.668;10.288;2022-07-18T03:49:04;17.90;64.70
26414;DHT22;14108;53.668;10.288;2022-07-18T03:51:32;17.90;64.80
26414;DHT22;14108;53.668;10.288;2022-07-18T03:53:59;17.90;65.00
26414;DHT22;14108;53.668;10.288;2022-07-18T03:56:26;17.90;65.10
26414;DHT22;14108;53.668;10.288;2022-07-18T03:58:54;17.90;65.10
26414;DHT22;14108;53.668;10.288;2022-07-18T04:01:21;17.90;65.00
26414;DHT22;14108;53.668;10.288;2022-07-18T04:03:48;17.90;64.90
26414;DHT22;14108;53.668;10.288;2022-07-18T04:06:16;18.00;64.90
26414;DHT22;14108;53.668;10.288;2022-07-18T04:08:43;18.00;64.80
26414;DHT22;14108;53.668;10.288;2022-07-18T04:11:10;18.00;64.80
26414;DHT22;14108;53.668;10.288;2022-07-18T04:13:38;18.10;65.00
26414;DHT22;14108;53.668;10.288;2022-07-18T04:16:06;18.10;64.90
26414;DHT22;14108;53.668;10.288;2022-07-18T04:18:33;18.10;64.90
26414;DHT22;14108;53.668;10.288;2022-07-18T04:21:01;18.20;64.80
26414;DHT22;14108;53.668;10.288;2022-07-18T04:23:29;18.20;65.00
26414;DHT22;14108;53.668;10.288;2022-07-18T04:25:56;18.20;64.80
26414;DHT22;14108;53.668;10.288;2022-07-18T04:28:25;18.20;64.60
26414;DHT22;14108;53.668;10.288;2022-07-18T04:30:52;18.30;64.80
26414;DHT22;14108;53.668;10.288;2022-07-18T04:33:19;18.30;64.80
26414;DHT22;14108;53.668;10.288;2022-07-18T04:35:48;18.30;64.70
26414;DHT22;14108;53.668;10.288;2022-07-18T04:38:16;18.40;64.70
26414;DHT22;14108;53.668;10.288;2022-07-18T04:40:44;18.40;64.70
26414;DHT22;14108;53.668;10.288;2022-07-18T04:43:11;18.40;64.20
26414;DHT22;14108;53.668;10.288;2022-07-18T04:45:38;18.50;64.80
26414;DHT22;14108;53.668;10.288;2022-07-18T04:48:07;18.50;64.30
26414;DHT22;14108;53.668;10.288;2022-07-18T04:50:35;18.50;64.00
26414;DHT22;14108;53.668;10.288;2022-07-18T04:53:03;18.50;64.00
26414;DHT22;14108;53.668;10.288;2022-07-18T04:55:30;18.50;64.10
26414;DHT22;14108;53.668;10.288;2022-07-18T04:57:57;18.60;64.00
26414;DHT22;14108;53.668;10.288;2022-07-18T05:00:26;18.60;64.20
26414;DHT22;14108;53.668;10.288;2022-07-18T05:02:55;18.60;64.00
26414;DHT22;14108;53.668;10.288;2022-07-18T05:05:25;18.60;64.10
26414;DHT22;14108;53.668;10.288;2022-07-18T05:07:53;18.60;63.70
26414;DHT22;14108;53.668;10.288;2022-07-18T05:10:22;18.70;63.80
26414;DHT22;14108;53.668;10.288;2022-07-18T05:12:51;18.70;64.10
26414;DHT22;14108;53.668;10.288;2022-07-18T05:15:20;18.80;64.20
26414;DHT22;14108;53.668;10.288;2022-07-18T05:17:48;18.80;64.20
26414;DHT22;14108;53.668;10.288;2022-07-18T05:20:16;18.90;64.10
26414;DHT22;14108;53.668;10.288;2022-07-18T05:22:44;18.90;64.00
26414;DHT22;14108;53.668;10.288;2022-07-18T05:25:13;18.90;64.00
26414;DHT22;14108;53.668;10.288;2022-07-18T05:27:41;19.00;64.10
26414;DHT22;14108;53.668;10.288;2022-07-18T05:30:11;19.10;64.00
26414;DHT22;14108;53.668;10.288;2022-07-18T05:32:39;19.10;63.80
26414;DHT22;14108;53.668;10.288;2022-07-18T05:35:09;19.20;63.80
26414;DHT22;14108;53.668;10.288;2022-07-18T05:37:37;19.30;63.70
26414;DHT22;14108;53.668;10.288;2022-07-18T05:40:07;19.30;63.50
26414;DHT22;14108;53.668;10.288;2022-07-18T05:42:35;19.40;62.90
26414;DHT22;14108;53.668;10.288;2022-07-18T05:45:04;19.50;62.90
26414;DHT22;14108;53.668;10.288;2022-07-18T05:47:32;19.50;62.60
26414;DHT22;14108;53.668;10.288;2022-07-18T05:49:59;19.60;62.40
26414;DHT22;14108;53.668;10.288;2022-07-18T05:52:27;19.50;62.40
26414;DHT22;14108;53.668;10.288;2022-07-18T05:54:54;19.60;62.20
26414;DHT22;14108;53.668;10.288;2022-07-18T05:57:21;19.60;61.90
26414;DHT22;14108;53.668;10.288;2022-07-18T05:59:49;19.70;62.10
26414;DHT22;14108;53.668;10.288;2022-07-18T06:02:16;19.70;61.90
26414;DHT22;14108;53.668;10.288;2022-07-18T06:04:44;19.80;61.70
26414;DHT22;14108;53.668;10.288;2022-07-18T06:07:11;19.90;61.50
26414;DHT22;14108;53.668;10.288;2022-07-18T06:09:39;19.90;60.80
26414;DHT22;14108;53.668;10.288;2022-07-18T06:12:07;19.90;60.20
26414;DHT22;14108;53.668;10.288;2022-07-18T06:14:35;19.90;61.00
26414;DHT22;14108;53.668;10.288;2022-07-18T06:17:03;20.00;61.10
26414;DHT22;14108;53.668;10.288;2022-07-18T06:19:30;20.00;61.00
26414;DHT22;14108;53.668;10.288;2022-07-18T06:21:58;20.10;61.30
26414;DHT22;14108;53.668;10.288;2022-07-18T06:24:26;20.10;61.40
26414;DHT22;14108;53.668;10.288;2022-07-18T06:26:53;20.20;61.20
26414;DHT22;14108;53.668;10.288;2022-07-18T06:29:21;20.20;60.90
26414;DHT22;14108;53.668;10.288;2022-07-18T06:31:48;20.30;60.50
26414;DHT22;14108;53.668;10.288;2022-07-18T06:34:15;20.30;60.20
26414;DHT22;14108;53.668;10.288;2022-07-18T06:36:43;20.30;59.80
26414;DHT22;14108;53.668;10.288;2022-07-18T06:39:10;20.40;59.70
26414;DHT22;14108;53.668;10.288;2022-07-18T06:41:38;20.40;59.50
26414;DHT22;14108;53.668;10.288;2022-07-18T06:44:06;20.40;59.20
26414;DHT22;14108;53.668;10.288;2022-07-18T06:46:33;20.50;58.70
26414;DHT22;14108;53.668;10.288;2022-07-18T06:49:03;20.50;58.50
26414;DHT22;14108;53.668;10.288;2022-07-18T06:51:30;20.50;58.30
26414;DHT22;14108;53.668;10.288;2022-07-18T06:53:58;20.50;58.10
26414;DHT22;14108;53.668;10.288;2022-07-18T06:56:25;20.60;57.20
26414;DHT22;14108;53.668;10.288;2022-07-18T06:58:53;20.60;56.60
26414;DHT22;14108;53.668;10.288;2022-07-18T07:01:21;20.70;56.30
26414;DHT22;14108;53.668;10.288;2022-07-18T07:03:49;20.70;55.80
26414;DHT22;14108;53.668;10.288;2022-07-18T07:06:16;20.70;55.70
26414;DHT22;14108;53.668;10.288;2022-07-18T07:08:44;20.80;55.80
26414;DHT22;14108;53.668;10.288;2022-07-18T07:11:11;20.80;55.00
26414;DHT22;14108;53.668;10.288;2022-07-18T07:13:38;20.80;55.10
26414;DHT22;14108;53.668;10.288;2022-07-18T07:16:06;20.80;54.90
26414;DHT22;14108;53.668;10.288;2022-07-18T07:18:33;20.90;55.00
26414;DHT22;14108;53.668;10.288;2022-07-18T07:24:31;21.00;54.60
26414;DHT22;14108;53.668;10.288;2022-07-18T07:26:59;21.10;54.20
26414;DHT22;14108;53.668;10.288;2022-07-18T07:29:26;21.20;54.50
26414;DHT22;14108;53.668;10.288;2022-07-18T07:31:54;21.30;54.80
26414;DHT22;14108;53.668;10.288;2022-07-18T07:36:58;21.40;53.10
26414;DHT22;14108;53.668;10.288;2022-07-18T07:39:25;21.50;53.00
26414;DHT22;14108;53.668;10.288;2022-07-18T07:41:52;21.60;52.80
26414;DHT22;14108;53.668;10.288;2022-07-18T07:44:20;21.60;52.90
26414;DHT22;14108;53.668;10.288;2022-07-18T07:46:47;21.70;52.80
26414;DHT22;14108;53.668;10.288;2022-07-18T07:49:14;21.80;52.20
26414;DHT22;14108;53.668;10.288;2022-07-18T07:51:42;21.80;52.60
26414;DHT22;14108;53.668;10.288;2022-07-18T07:54:09;21.90;52.30
26414;DHT22;14108;53.668;10.288;2022-07-18T07:56:36;22.00;51.60
26414;DHT22;14108;53.668;10.288;2022-07-18T07:59:04;22.00;51.90
26414;DHT22;14108;53.668;10.288;2022-07-18T08:01:31;22.10;52.10
26414;DHT22;14108;53.668;10.288;2022-07-18T08:03:58;22.10;52.30
26414;DHT22;14108;53.668;10.288;2022-07-18T08:06:26;22.20;52.00
26414;DHT22;14108;53.668;10.288;2022-07-18T08:08:53;22.20;52.60
26414;DHT22;14108;53.668;10.288;2022-07-18T08:11:21;22.30;52.40
26414;DHT22;14108;53.668;10.288;2022-07-18T08:13:48;22.40;52.10
26414;DHT22;14108;53.668;10.288;2022-07-18T08:16:15;22.40;51.80
26414;DHT22;14108;53.668;10.288;2022-07-18T08:18:43;22.50;51.80
26414;DHT22;14108;53.668;10.288;2022-07-18T08:21:10;22.60;52.30
26414;DHT22;14108;53.668;10.288;2022-07-18T08:23:37;22.70;52.80
26414;DHT22;14108;53.668;10.288;2022-07-18T08:26:05;22.70;53.10
26414;DHT22;14108;53.668;10.288;2022-07-18T08:28:32;22.80;52.40
26414;DHT22;14108;53.668;10.288;2022-07-18T08:31:00;22.80;52.10
26414;DHT22;14108;53.668;10.288;2022-07-18T08:33:27;22.90;51.80
26414;DHT22;14108;53.668;10.288;2022-07-18T08:35:54;22.90;51.70
26414;DHT22;14108;53.668;10.288;2022-07-18T08:38:22;23.00;51.70
26414;DHT22;14108;53.668;10.288;2022-07-18T08:40:53;23.00;51.70
26414;DHT22;14108;53.668;10.288;2022-07-18T08:46:01;23.10;51.60
26414;DHT22;14108;53.668;10.288;2022-07-18T08:48:28;23.10;51.40
26414;DHT22;14108;53.668;10.288;2022-07-18T08:50:56;23.20;51.20
26414;DHT22;14108;53.668;10.288;2022-07-18T08:53:23;23.20;51.70
26414;DHT22;14108;53.668;10.288;2022-07-18T08:55:51;23.30;51.10
26414;DHT22;14108;53.668;10.288;2022-07-18T08:58:19;23.30;52.20
26414;DHT22;14108;53.668;10.288;2022-07-18T09:00:47;23.40;50.80
26414;DHT22;14108;53.668;10.288;2022-07-18T09:03:14;23.40;50.30
26414;DHT22;14108;53.668;10.288;2022-07-18T09:05:41;23.50;50.40
26414;DHT22;14108;53.668;10.288;2022-07-18T09:08:10;23.50;51.00
26414;DHT22;14108;53.668;10.288;2022-07-18T09:10:51;23.60;51.40
26414;DHT22;14108;53.668;10.288;2022-07-18T09:13:21;23.70;51.30
26414;DHT22;14108;53.668;10.288;2022-07-18T09:15:59;23.70;49.80
26414;DHT22;14108;53.668;10.288;2022-07-18T09:18:28;23.80;50.00
26414;DHT22;14108;53.668;10.288;2022-07-18T09:20:59;23.80;50.70
26414;DHT22;14108;53.668;10.288;2022-07-18T09:23:29;23.90;50.20
26414;DHT22;14108;53.668;10.288;2022-07-18T09:25:56;23.90;50.50
26414;DHT22;14108;53.668;10.288;2022-07-18T09:28:23;24.00;50.80
26414;DHT22;14108;53.668;10.288;2022-07-18T09:30:51;24.10;50.40
26414;DHT22;14108;53.668;10.288;2022-07-18T09:33:18;24.20;49.80
26414;DHT22;14108;53.668;10.288;2022-07-18T09:35:48;24.20;49.50
26414;DHT22;14108;53.668;10.288;2022-07-18T09:38:17;24.30;49.40
26414;DHT22;14108;53.668;10.288;2022-07-18T09:40:46;24.40;48.90
26414;DHT22;14108;53.668;10.288;2022-07-18T09:43:16;24.40;49.20
26414;DHT22;14108;53.668;10.288;2022-07-18T09:45:45;24.40;49.20
26414;DHT22;14108;53.668;10.288;2022-07-18T09:48:15;24.50;49.30
26414;DHT22;14108;53.668;10.288;2022-07-18T09:50:50;24.50;49.40
26414;DHT22;14108;53.668;10.288;2022-07-18T09:53:20;24.50;48.40
26414;DHT22;14108;53.668;10.288;2022-07-18T09:55:52;24.60;48.20
26414;DHT22;14108;53.668;10.288;2022-07-18T09:58:21;24.60;48.20
26414;DHT22;14108;53.668;10.288;2022-07-18T10:00:49;24.70;48.10
26414;DHT22;14108;53.668;10.288;2022-07-18T10:03:17;24.70;48.20
26414;DHT22;14108;53.668;10.288;2022-07-18T10:05:47;24.80;47.80
26414;DHT22;14108;53.668;10.288;2022-07-18T10:08:16;24.90;47.70
26414;DHT22;14108;53.668;10.288;2022-07-18T10:10:45;24.90;47.40
26414;DHT22;14108;53.668;10.288;2022-07-18T10:13:13;24.90;47.40
26414;DHT22;14108;53.668;10.288;2022-07-18T10:15:42;25.00;47.60
26414;DHT22;14108;53.668;10.288;2022-07-18T10:18:14;25.00;47.50
26414;DHT22;14108;53.668;10.288;2022-07-18T10:20:44;25.10;47.60
26414;DHT22;14108;53.668;10.288;2022-07-18T10:23:16;25.10;47.50
26414;DHT22;14108;53.668;10.288;2022-07-18T10:25:45;25.20;47.10
26414;DHT22;14108;53.668;10.288;2022-07-18T10:28:30;25.20;47.30
26414;DHT22;14108;53.668;10.288;2022-07-18T10:31:13;25.30;46.90
26414;DHT22;14108;53.668;10.288;2022-07-18T10:33:42;25.30;47.10
26414;DHT22;14108;53.668;10.288;2022-07-18T10:36:13;25.30;46.10
26414;DHT22;14108;53.668;10.288;2022-07-18T10:39:04;25.30;46.40
26414;DHT22;14108;53.668;10.288;2022-07-18T10:41:32;25.40;46.40
26414;DHT22;14108;53.668;10.288;2022-07-18T10:44:01;25.40;45.90
26414;DHT22;14108;53.668;10.288;2022-07-18T10:47:06;25.50;46.40
26414;DHT22;14108;53.668;10.288;2022-07-18T10:50:00;25.50;46.60
26414;DHT22;14108;53.668;10.288;2022-07-18T10:52:58;25.60;46.30
26414;DHT22;14108;53.668;10.288;2022-07-18T10:55:33;25.70;45.40
26414;DHT22;14108;53.668;10.288;2022-07-18T10:58:18;25.80;45.50
26414;DHT22;14108;53.668;10.288;2022-07-18T11:00:52;26.00;45.40
26414;DHT22;14108;53.668;10.288;2022-07-18T11:03:27;26.10;44.50
26414;DHT22;14108;53.668;10.288;2022-07-18T11:05:56;26.10;44.00
26414;DHT22;14108;53.668;10.288;2022-07-18T11:08:24;26.20;44.50
26414;DHT22;14108;53.668;10.288;2022-07-18T11:11:11;26.30;44.40
26414;DHT22;14108;53.668;10.288;2022-07-18T11:16:22;26.40;44.80
26414;DHT22;14108;53.668;10.288;2022-07-18T11:19:16;26.60;44.40
26414;DHT22;14108;53.668;10.288;2022-07-18T11:21:44;26.60;44.30
26414;DHT22;14108;53.668;10.288;2022-07-18T11:24:13;26.60;44.40
26414;DHT22;14108;53.668;10.288;2022-07-18T11:26:45;26.80;44.80
26414;DHT22;14108;53.668;10.288;2022-07-18T11:29:15;26.80;43.70
26414;DHT22;14108;53.668;10.288;2022-07-18T11:31:47;26.90;43.60
26414;DHT22;14108;53.668;10.288;2022-07-18T11:34:15;26.90;43.80
26414;DHT22;14108;53.668;10.288;2022-07-18T11:36:45;27.00;43.90
26414;DHT22;14108;53.668;10.288;2022-07-18T11:39:13;27.10;43.70
26414;DHT22;14108;53.668;10.288;2022-07-18T11:44:17;27.10;43.80
26414;DHT22;14108;53.668;10.288;2022-07-18T11:46:45;27.50;41.00
26414;DHT22;14108;53.668;10.288;2022-07-18T11:51:49;27.50;41.50
26414;DHT22;14108;53.668;10.288;2022-07-18T11:54:23;27.60;42.10
26414;DHT22;14108;53.668;10.288;2022-07-18T11:56:54;27.60;41.90
26414;DHT22;14108;53.668;10.288;2022-07-18T11:59:23;27.70;42.50
26414;DHT22;14108;53.668;10.288;2022-07-18T12:04:36;27.70;42.00
26414;DHT22;14108;53.668;10.288;2022-07-18T12:07:18;28.10;41.20
26414;DHT22;14108;53.668;10.288;2022-07-18T12:09:47;28.00;41.50
26414;DHT22;14108;53.668;10.288;2022-07-18T12:12:16;28.00;41.20
26414;DHT22;14108;53.668;10.288;2022-07-18T12:14:53;28.10;41.60
26414;DHT22;14108;53.668;10.288;2022-07-18T12:17:21;28.10;42.00
26414;DHT22;14108;53.668;10.288;2022-07-18T12:19:48;28.20;41.90
26414;DHT22;14108;53.668;10.288;2022-07-18T12:22:15;28.20;42.10
26414;DHT22;14108;53.668;10.288;2022-07-18T12:24:51;28.30;42.20
26414;DHT22;14108;53.668;10.288;2022-07-18T12:27:21;28.40;41.70
26414;DHT22;14108;53.668;10.288;2022-07-18T12:30:06;28.40;41.80
26414;DHT22;14108;53.668;10.288;2022-07-18T12:32:40;28.50;41.20
26414;DHT22;14108;53.668;10.288;2022-07-18T12:35:10;28.50;41.50
26414;DHT22;14108;53.668;10.288;2022-07-18T12:37:37;28.60;41.00
26414;DHT22;14108;53.668;10.288;2022-07-18T12:40:07;28.60;41.20
26414;DHT22;14108;53.668;10.288;2022-07-18T12:42:37;28.60;41.20
26414;DHT22;14108;53.668;10.288;2022-07-18T12:45:07;28.70;41.40
26414;DHT22;14108;53.668;10.288;2022-07-18T12:47:35;28.90;41.20
26414;DHT22;14108;53.668;10.288;2022-07-18T12:50:03;29.10;41.20
26414;DHT22;14108;53.668;10.288;2022-07-18T12:52:30;29.20;41.40
26414;DHT22;14108;53.668;10.288;2022-07-18T12:54:58;29.40;41.50
26414;DHT22;14108;53.668;10.288;2022-07-18T12:57:26;29.40;40.50
26414;DHT22;14108;53.668;10.288;2022-07-18T12:59:53;29.60;40.30
26414;DHT22;14108;53.668;10.288;2022-07-18T13:02:21;29.70;39.40
26414;DHT22;14108;53.668;10.288;2022-07-18T13:04:48;29.90;39.80
26414;DHT22;14108;53.668;10.288;2022-07-18T13:07:15;30.00;37.90
26414;DHT22;14108;53.668;10.288;2022-07-18T13:09:43;30.10;38.20
26414;DHT22;14108;53.668;10.288;2022-07-18T13:12:11;30.10;37.20
26414;DHT22;14108;53.668;10.288;2022-07-18T13:14:38;30.20;37.60
26414;DHT22;14108;53.668;10.288;2022-07-18T13:17:05;30.30;37.50
26414;DHT22;14108;53.668;10.288;2022-07-18T13:19:33;30.30;37.50
26414;DHT22;14108;53.668;10.288;2022-07-18T13:22:00;30.20;36.70
26414;DHT22;14108;53.668;10.288;2022-07-18T13:24:28;30.20;36.80
26414;DHT22;14108;53.668;10.288;2022-07-18T13:26:55;30.10;36.70
26414;DHT22;14108;53.668;10.288;2022-07-18T13:29:23;30.10;35.90
26414;DHT22;14108;53.668;10.288;2022-07-18T13:31:50;30.10;35.30
26414;DHT22;14108;53.668;10.288;2022-07-18T13:34:19;30.00;35.70
26414;DHT22;14108;53.668;10.288;2022-07-18T13:36:49;30.00;35.90
26414;DHT22;14108;53.668;10.288;2022-07-18T13:39:17;29.90;35.40
26414;DHT22;14108;53.668;10.288;2022-07-18T13:41:45;29.90;36.30
26414;DHT22;14108;53.668;10.288;2022-07-18T13:44:13;29.80;35.80
26414;DHT22;14108;53.668;10.288;2022-07-18T13:46:41;29.80;36.10
26414;DHT22;14108;53.668;10.288;2022-07-18T13:49:09;29.80;35.90
26414;DHT22;14108;53.668;10.288;2022-07-18T13:51:37;29.80;36.00
26414;DHT22;14108;53.668;10.288;2022-07-18T13:54:05;29.80;36.40
26414;DHT22;14108;53.668;10.288;2022-07-18T13:56:33;29.80;37.50
26414;DHT22;14108;53.668;10.288;2022-07-18T13:59:00;30.00;36.70
26414;DHT22;14108;53.668;10.288;2022-07-18T14:01:27;30.10;37.10
26414;DHT22;14108;53.668;10.288;2022-07-18T14:03:55;30.30;36.90
26414;DHT22;14108;53.668;10.288;2022-07-18T14:06:22;30.40;37.20
26414;DHT22;14108;53.668;10.288;2022-07-18T14:08:49;30.50;36.80
26414;DHT22;14108;53.668;10.288;2022-07-18T14:11:17;30.60;36.40
26414;DHT22;14108;53.668;10.288;2022-07-18T14:13:45;30.60;35.30
26414;DHT22;14108;53.668;10.288;2022-07-18T14:16:14;30.50;35.10
26414;DHT22;14108;53.668;10.288;2022-07-18T14:18:41;30.60;35.70
26414;DHT22;14108;53.668;10.288;2022-07-18T14:21:09;30.70;35.30
26414;DHT22;14108;53.668;10.288;2022-07-18T14:23:36;30.80;36.10
26414;DHT22;14108;53.668;10.288;2022-07-18T14:26:03;30.90;35.70
26414;DHT22;14108;53.668;10.288;2022-07-18T14:28:31;31.00;35.40
26414;DHT22;14108;53.668;10.288;2022-07-18T14:30:58;31.10;35.80
26414;DHT22;14108;53.668;10.288;2022-07-18T14:33:25;31.20;35.00
26414;DHT22;14108;53.668;10.288;2022-07-18T14:35:53;31.20;34.80
26414;DHT22;14108;53.668;10.288;2022-07-18T14:38:20;31.30;34.20
26414;DHT22;14108;53.668;10.288;2022-07-18T14:40:48;31.40;34.40
26414;DHT22;14108;53.668;10.288;2022-07-18T14:43:15;31.50;34.10
26414;DHT22;14108;53.668;10.288;2022-07-18T14:45:43;31.50;32.00
26414;DHT22;14108;53.668;10.288;2022-07-18T14:48:10;31.40;32.40
26414;DHT22;14108;53.668;10.288;2022-07-18T14:50:38;31.30;33.80
26414;DHT22;14108;53.668;10.288;2022-07-18T14:53:05;31.30;33.90
26414;DHT22;14108;53.668;10.288;2022-07-18T14:55:33;31.30;34.10
26414;DHT22;14108;53.668;10.288;2022-07-18T14:58:00;31.30;33.80
26414;DHT22;14108;53.668;10.288;2022-07-18T15:00:30;31.30;32.90
26414;DHT22;14108;53.668;10.288;2022-07-18T15:02:57;31.30;32.60
26414;DHT22;14108;53.668;10.288;2022-07-18T15:05:24;31.20;32.80
26414;DHT22;14108;53.668;10.288;2022-07-18T15:07:52;31.20;32.50
26414;DHT22;14108;53.668;10.288;2022-07-18T15:10:19;31.20;32.60
26414;DHT22;14108;53.668;10.288;2022-07-18T15:12:47;31.20;33.10
26414;DHT22;14108;53.668;10.288;2022-07-18T15:15:14;31.20;33.50
26414;DHT22;14108;53.668;10.288;2022-07-18T15:17:41;31.20;32.80
26414;DHT22;14108;53.668;10.288;2022-07-18T15:20:11;31.20;32.70
26414;DHT22;14108;53.668;10.288;2022-07-18T15:22:39;31.20;32.70
26414;DHT22;14108;53.668;10.288;2022-07-18T15:25:08;31.10;33.00
26414;DHT22;14108;53.668;10.288;2022-07-18T15:27:36;31.20;32.80
26414;DHT22;14108;53.668;10.288;2022-07-18T15:30:05;31.20;32.60
26414;DHT22;14108;53.668;10.288;2022-07-18T15:32:32;31.30;33.40
26414;DHT22;14108;53.668;10.288;2022-07-18T15:35:00;31.40;33.40
26414;DHT22;14108;53.668;10.288;2022-07-18T15:37:27;31.40;33.50
26414;DHT22;14108;53.668;10.288;2022-07-18T15:39:54;31.50;33.60
26414;DHT22;14108;53.668;10.288;2022-07-18T15:42:22;31.60;32.40
26414;DHT22;14108;53.668;10.288;2022-07-18T15:44:49;31.60;32.60